Latest Coastal Weather Observations for Gladstone

IDQ60701

Issued at 2:21 pm EST Tuesday 26 May 2020 (issued every 10 minutes, with the page automatically refreshed every 10 minutes)

About coastal observations | Map of coastal stations | Coastal observations for QLD | Marine services | Other Formats
Station Details ID: 039123 Name: GLADSTONE RADAR Lat: -23.86 Lon: 151.26 Height: 74.5 m
Data from the previous 72 hours. | See also: Recent months at Gladstone
Date/Time
EST
Wind Sea
Height
m
Swell Vis
km
Cloud Weather Temp
°C
Press
hPa
Rain since
9am
mm
Dir  Spd
kts
Gust
kts
Height
m
Period
s
Dir
26/02:00pm NE 7 12 - - - - - - - - 1017.6 0.0
26/01:30pm NE 5 9 - - - - - - - - 1017.8 0.0
26/01:00pm NE 7 10 - - - - - - - - 1018.0 0.0
26/12:30pm NE 7 9 - - - - - - - - 1018.4 0.0
26/12:00pm ENE 5 8 - - - - - - - - 1019.0 0.0
26/11:30am SW 2 4 - - - - - - - - 1019.3 0.0
26/11:00am S 4 8 - - - - - - - - 1019.6 0.0
26/10:30am SSW 7 11 - - - - - - - - 1019.7 0.0
26/10:00am SW 4 7 - - - - - - - - 1019.9 0.0
26/09:30am SSW 3 7 - - - - - - - - 1020.1 0.0
26/09:00am S 5 9 - - - - - - - - 1019.9 0.0
26/08:30am S 5 9 - - - - - - - - 1019.9 0.0
26/08:00am SW 3 6 - - - - - - - - 1019.7 0.0
26/07:30am SW 5 8 - - - - - - - - 1019.5 0.0
26/07:00am SSW 7 10 - - - - - - - - 1019.2 0.0
26/06:30am SSW 9 13 - - - - - - - - 1018.8 0.0
26/06:00am SSW 9 14 - - - - - - - - 1018.4 0.0
26/05:30am SW 8 14 - - - - - - - - 1018.0 0.0
26/05:00am SW 8 12 - - - - - - - - 1017.8 0.0
26/04:30am SSW 8 12 - - - - - - - - 1017.6 0.0
26/04:00am SSW 8 12 - - - - - - - - 1017.6 0.0
26/03:30am SSW 6 11 - - - - - - - - 1017.5 0.0
26/03:00am SW 6 10 - - - - - - - - 1017.5 0.0
26/02:30am SW 6 10 - - - - - - - - 1017.5 0.0
26/02:00am SW 7 10 - - - - - - - - 1017.8 0.0
26/01:30am SW 7 10 - - - - - - - - 1017.9 0.0
26/01:00am SW 7 13 - - - - - - - - 1018.0 0.0
26/12:30am SW 6 9 - - - - - - - - 1018.0 0.0
26/12:00am WSW 6 8 - - - - - - - - 1018.1 0.0
 
Date/Time
EST
Wind Sea
Height
m
Swell Vis
km
Cloud Weather Temp
°C
Press
hPa
Rain since
9am
mm
Dir  Spd
kts
Gust
kts
Height
m
Period
s
Dir
25/11:30pm WSW 4 5 - - - - - - - - 1018.0 0.0
25/11:00pm WSW 4 5 - - - - - - - - 1018.0 0.0
25/10:30pm WSW 4 5 - - - - - - - - 1018.0 0.0
25/10:00pm WSW 5 9 - - - - - - - - 1018.1 0.0
25/09:30pm W 4 7 - - - - - - - - 1018.0 0.0
25/09:00pm WNW 5 7 - - - - - - - - 1017.9 0.0
25/08:30pm WNW 5 8 - - - - - - - - 1017.6 0.0
25/08:00pm WNW 6 9 - - - - - - - - 1017.5 0.0
25/07:30pm NW 5 7 - - - - - - - - 1017.1 0.0
25/07:00pm NW 6 8 - - - - - - - - 1017.0 0.0
25/06:30pm NW 7 11 - - - - - - - - 1016.5 0.0
25/06:00pm NW 7 11 - - - - - - - - 1016.0 0.0
25/05:30pm NNW 5 9 - - - - - - - - 1015.6 0.0
25/05:00pm NNW 6 10 - - - - - - - - 1015.4 0.0
25/04:30pm NNW 7 11 - - - - - - - - 1015.2 0.0
25/04:00pm NNW 7 12 - - - - - - - - 1015.2 0.0
25/03:30pm N 7 13 - - - - - - - - 1014.8 0.0
25/03:00pm NNE 7 12 - - - - - - - - 1014.7 0.0
25/02:30pm N 7 14 - - - - - - - - 1014.8 0.0
25/02:00pm NW 6 12 - - - - - - - - 1014.9 0.0
25/01:30pm N 6 10 - - - - - - - - 1015.2 0.0
25/01:00pm NNE 7 11 - - - - - - - - 1015.5 0.0
25/12:30pm NE 4 8 - - - - - - - - 1015.7 0.0
25/12:00pm SW 2 4 - - - - - - - - 1015.9 0.0
25/11:30am SSW 4 7 - - - - - - - - 1016.1 0.0
25/11:00am S 5 12 - - - - - - - - 1016.5 0.0
25/10:30am S 6 11 - - - - - - - - 1017.0 0.0
25/10:00am SW 6 11 - - - - - - - - 1017.1 0.0
25/09:30am SW 4 7 - - - - - - - - 1017.3 0.0
25/09:00am WSW 5 8 - - - - - - - - 1017.4 0.0
25/08:30am SW 6 11 - - - - - - - - 1017.2 0.0
25/08:00am SW 6 10 - - - - - - - - 1016.9 0.0
25/07:30am SW 8 14 - - - - - - - - 1016.5 0.0
25/07:00am SW 7 10 - - - - - - - - 1016.4 0.0
25/06:30am SW 7 11 - - - - - - - - 1016.2 0.0
25/06:00am SW 7 9 - - - - - - - - 1015.6 0.0
25/05:30am SW 8 15 - - - - - - - - 1015.5 0.0
25/05:00am SW 9 15 - - - - - - - - 1015.2 0.0
25/04:30am SW 10 18 - - - - - - - - 1015.0 0.0
25/04:00am SW 8 13 - - - - - - - - 1015.2 0.0
25/03:30am SW 7 9 - - - - - - - - 1015.3 0.0
25/03:00am SW 6 8 - - - - - - - - 1015.4 0.0
25/02:30am SW 6 9 - - - - - - - - 1015.4 0.0
25/02:00am SW 6 9 - - - - - - - - 1015.5 0.0
25/01:30am SW 5 6 - - - - - - - - 1015.6 0.0
25/01:00am SW 5 6 - - - - - - - - 1015.8 0.0
25/12:30am SW 4 5 - - - - - - - - 1015.9 0.0
25/12:00am SW 4 4 - - - - - - - - 1016.2 0.0
 
Date/Time
EST
Wind Sea
Height
m
Swell Vis
km
Cloud Weather Temp
°C
Press
hPa
Rain since
9am
mm
Dir  Spd
kts
Gust
kts
Height
m
Period
s
Dir
24/11:30pm SW 4 5 - - - - - - - - 1016.3 0.0
24/11:00pm SW 3 4 - - - - - - - - 1016.3 0.0
24/10:30pm SW 4 5 - - - - - - - - 1016.2 0.0
24/10:00pm SW 4 5 - - - - - - - - 1016.2 0.0
24/09:30pm SW 4 5 - - - - - - - - 1015.9 0.0
24/09:00pm SW 4 5 - - - - - - - - 1015.6 0.0
24/08:30pm SW 4 4 - - - - - - - - 1015.5 0.0
24/08:00pm SW 5 6 - - - - - - - - 1014.9 0.0
24/07:30pm SW 5 9 - - - - - - - - 1014.6 0.0
24/07:00pm SW 5 9 - - - - - - - - 1014.0 0.0
24/06:30pm SW 6 10 - - - - - - - - 1013.6 0.0
24/06:00pm SW 6 9 - - - - - - - - 1013.0 0.0
24/05:30pm WSW 6 11 - - - - - - - - 1012.8 0.0
24/05:00pm WSW 6 10 - - - - - - - - 1012.8 0.0
24/04:30pm SW 8 15 - - - - - - - - 1012.4 0.0
24/04:00pm WSW 8 15 - - - - - - - - 1011.8 0.0
24/03:30pm WSW 7 15 - - - - - - - - 1011.6 0.0
24/03:00pm WSW 7 14 - - - - - - - - 1011.4 0.0
24/02:30pm WSW 9 16 - - - - - - - - 1011.7 0.0
24/02:00pm SW 7 15 - - - - - - - - 1012.2 0.0
24/01:30pm WSW 7 15 - - - - - - - - 1012.5 0.0
24/01:00pm WSW 5 9 - - - - - - - - 1013.0 0.0
24/12:30pm WSW 5 12 - - - - - - - - 1013.5 0.0
24/12:00pm SW 7 15 - - - - - - - - 1013.9 0.0
24/11:30am SW 9 15 - - - - - - - - 1014.3 0.0
24/11:00am SW 6 11 - - - - - - - - 1014.8 0.0
24/10:30am SW 6 10 - - - - - - - - 1015.4 0.0
24/10:00am SW 6 12 - - - - - - - - 1015.7 0.0
24/09:30am SW 6 12 - - - - - - - - 1015.6 0.0
24/09:00am WSW 5 9 - - - - - - - - 1015.6 4.2
24/08:30am SW 6 11 - - - - - - - - 1015.4 4.2
24/08:00am SW 7 11 - - - - - - - - 1015.2 4.2
24/07:30am SW 6 11 - - - - - - - - 1015.0 4.2
24/07:00am WSW 6 9 - - - - - - - - 1014.7 4.2
24/06:30am SSW 5 7 - - - - - - - - 1014.4 4.2
24/06:00am WSW 5 7 - - - - - - - - 1014.1 4.2
24/05:30am SW 5 10 - - - - - - - - 1013.6 4.2
24/05:00am SW 5 7 - - - - - - - - 1013.4 4.2
24/04:30am SW 5 9 - - - - - - - - 1013.3 4.2
24/04:00am WSW 6 11 - - - - - - - - 1013.1 4.2
24/03:30am WSW 7 14 - - - - - - - - 1012.9 4.2
24/03:00am SW 7 11 - - - - - - - - 1013.1 4.2
24/02:30am SW 7 10 - - - - - - - - 1013.0 4.2
24/02:00am WSW 5 9 - - - - - - - - 1013.6 4.2
24/01:30am SW 5 9 - - - - - - - - 1014.6 4.2
24/01:00am SW 5 9 - - - - - - - - 1014.1 4.2
24/12:30am SW 4 6 - - - - - - - - 1014.9 4.2
24/12:00am SW 4 5 - - - - - - - - 1014.4 4.2
 
Date/Time
EST
Wind Sea
Height
m
Swell Vis
km
Cloud Weather Temp
°C
Press
hPa
Rain since
9am
mm
Dir  Spd
kts
Gust
kts
Height
m
Period
s
Dir
23/11:30pm SW 4 6 - - - - - - - - 1014.5 4.2
23/11:00pm SW 4 5 - - - - - - - - 1014.1 4.2
23/10:30pm SW 4 5 - - - - - - - - 1014.1 4.2
23/10:00pm SW 4 5 - - - - - - - - 1014.1 4.2
23/09:30pm SW 4 7 - - - - - - - - 1014.5 4.2
23/09:20pm SW 3 5 - - - - - - - - 1013.7 4.2
23/09:00pm SW 3 7 - - - - - - - - 1015.8 4.2
23/08:30pm SW 4 5 - - - - - - - - 1014.7 4.2
23/08:00pm SW 3 5 - - - - - - - - 1014.1 4.2
23/07:30pm SW 4 6 - - - - - - - - 1014.8 4.2
23/07:18pm SW 4 7 - - - - - - - - 1013.0 4.2
23/07:07pm SW 3 7 - - - - - - - - 1015.2 4.2
23/07:00pm SW 4 7 - - - - - - - - 1013.1 4.2
23/06:30pm WSW 3 5 - - - - - - - - 1012.8 4.2
23/06:25pm WSW 2 4 - - - - - - - - 1011.7 4.2
23/06:00pm WSW 4 6 - - - - - - - - 1013.8 4.2
23/05:30pm SW 4 7 - - - - - - - - 1013.4 4.2
23/05:00pm WSW 3 5 - - - - - - - - 1011.9 4.2
23/04:30pm WSW 4 7 - - - - - - - - 1012.9 4.2
23/04:00pm W 4 7 - - - - - - - - 1014.2 4.2
23/03:30pm W 3 5 - - - - - - - - 1012.7 4.2
23/03:00pm W 3 5 - - - - - - Recent precip. - 1012.3 4.2
23/02:30pm W 3 6 - - - - - - - - 1013.2 4.2

Other formats

Comma delimited format used in spreadsheet applications
http://www.bom.gov.au/fwo/IDQ60701/IDQ60701.94380.axf

JavaScript Object Notation format (JSON) in row-major order
http://www.bom.gov.au/fwo/IDQ60701/IDQ60701.94380.json

Data quality

Most of these data are generated automatically and are frequently updated. Quality checks on data are not normally performed. It is possible for incorrect values to appear. Refer to information at About Latest Weather Observations and please check the disclaimer before using these data.